My Meet Scores
Ashlyn Perra, Patti Dunne's School Of Gymnastics - MyMeetScores.com
Top100 | Top Teams | Upcoming Meets | Completed Meets | Latest | Add Scores | Help| Support | Bookmark and Share

Ashlyn Perra, Patti Dunne's School Of Gymnastics
Personal Bests
LevelVault BarsBeamFloorAA
39.4509.300 9.6509.15037.050
49.2509.375 9.7009.40037.200
79.2009.125 9.4009.15036.425
Meet Scores
Date Meet Team Session Level Division Vault Bars Beam Floor AA
2020-02-21 Team Challenge 2020 Patti Dunne's School Of Gymnastics B1 7 Child 8.700 5T 9.075 6T 9.400 5 9.150 8 36.325 5T
2020-02-13 Presidential Classic Patti Dunne%27s School Of Gymnastics R11 7 L7 r11 g1 9.200 4 9.100 10 8.200 12 8.800 13 35.300 12
2020-01-24 Manhattan Classic Patti Dunne's School Of Gymnastics 6SL 7 Junior A 9.150 1 9.100 3 9.350 6 8.825 9 36.425 3
2020-01-17 Brestyans Invitational Patti Dunne's School Of Gymnastics C1 7 Age 2 8.800 31T 9.125 15 8.400 32 9.100 20T 35.425 24
2020-01-10 Little Boston Invitational Patti Dunne's School Of Gymnastics A01 7 INT 9.200 2 9.000 6 9.100 6 8.775 10 36.075 4
2019-12-06 Rhode Island Invitational Patti Dunne's School Of Gymnastics GF1 7 child 8.950 3 8.350 6 8.725 8 9.025 4 35.050 6
2019-02-15 Presidential Classic Patti Dunne's School Of Gymnastics R17 4 L4 R17 g4 9.100 1 9.250 1T 9.600 1 9.200 1 37.150 1
2019-02-08 Team Challenge 2019 Patti Dunne's School Of Gymnastics R5 4 Jr B 9.100 1 8.100 6T 9.350 1 9.350 1 35.900 2
2019-02-01 State Level 4&5 Patti Dunne's School Of Gymnastics 3 4 10A 9.250 12T 8.850 22 9.700 2 9.400 4T 37.200 8T
2019-01-26 Manhattan Classic Patti Dunne's School Of Gymnastics 4CP 4 Junior A 8.925 5 9.375 4 9.300 4 9.200 5T 36.800 5
2019-01-18 DGS Northeast Invite Patti Dunne's School Of Gymnastics 6A 4 Ch C 9.025 1 8.825 4 9.550 1 9.150 1 36.550 1
2019-01-10 Little Boston Invitational Patti Dunne's School Of Gymnastics C10 4 JR 9.100 2 8.850 6 9.425 2 8.850 2 36.225 4
2018-12-14 Shen's New England Classic Patti Dunne's School Of Gymnastics 08 4 JR A 8.900 1 9.350 1 9.400 1 9.175 1 36.825 1
2018-12-08 American Gymnastics Invitational Patti Dunne's School Of Gymnastics 5 4 Child B 8.700 3 8.450 4 9.175 4 9.175 3 35.500 4
2018-11-17 2018 Connecticut Judge's Cup Patti Dunne's School Of Gymnastics 6 4 9 yrs. 9.000 11T 9.175 3 8.750 12T 9.100 14 36.025 3T
2018-02-16 Chelsea Piers Winter Challenge Patti Dunne's School Of Gymnastics F-4 4 Child 9.200 1 8.700 2T 8.850 4 9.000 1 35.750 1
2018-02-09 Team Challenge 2018 Patti Dunne's School Of Gymnastics 08B 4 Jr B 8.850 10 8.600 9T 9.150 3T 8.800 8 35.400 6
2018-02-03 Level 4 & 5 States Patti Dunne's School Of Gymnastics 2 4 9 A 8.750 35 8.450 35T 9.200 32* 9.000 21T 35.400 32T
2018-01-19 Kinetic Kids Invitational Patti Dunne's School Of Gymnastics 2 4 Jr A 8.800 6 8.350 9 9.200 1 9.050 3 35.400 4
2018-01-12 DGS Invitational Patti Dunne's School Of Gymnastics 5B 4 8-9 yrs. 8.700 4T 7.600 8 8.800 5 8.800 6 33.900 6
2017-11-30 Rhode Island Invitational Patti Dunne's School Of Gymnastics BF1 4 Child 8.200 6T 8.300 5 8.750 3 8.825 6 34.075 4
2017-03-25 2017 Connecticut Level 3 State Cup Patti Dunne's School Of Gymnastics 6 3 N/A 9.350 9 8.850 26T 8.500 33T 8.850 29T 35.550 24
2017-02-18 Chelsea Piers Winter Challenge Patti Dunne's School Of Gymnastics F-4 3 Jr A 9.450 3 9.150 7 9.650 3 8.800 6 37.050 5T
2017-02-10 Team Challenge 2017 Patti Dunne's School Of Gymnastics 10B 3 Inter 9.150 4 9.300 5T 9.350 1T 9.150 3T 36.950 4
2017-01-27 24th Annual American Invitational Patti Dunne's School Of Gymnastics 6A 3 Child 9.175 14 8.800 11T 8.600 14 9.025 14 35.600 11
2017-01-13 Northeast Invitational Patti Dunne's School Of Gymnastics 9 3 8 yrs. 9.000 8 7.750 13 9.000 7 8.800 5 34.550 7
2016-12-02 Rhode Island Invitational Patti Dunne's School Of Gymnastics WS4 3 Intermedia 9.075 5T 8.650 6 7.750 8 8.950 4 34.425 4
Get your scores on
a t-shirt, pin, or hoodie

www.lazysuits.com